sensor_id;sensor_type;location;lat;lon;timestamp;P1;durP1;ratioP1;P2;durP2;ratioP2
74904;SDS011;63465;50.862;6.220;2022-12-07T00:01:13;42.90;;;19.60;;
74904;SDS011;63465;50.862;6.220;2022-12-07T00:03:42;39.83;;;19.07;;
74904;SDS011;63465;50.862;6.220;2022-12-07T00:06:10;32.00;;;18.20;;
74904;SDS011;63465;50.862;6.220;2022-12-07T00:08:39;39.60;;;19.67;;
74904;SDS011;63465;50.862;6.220;2022-12-07T00:11:07;38.27;;;19.17;;
74904;SDS011;63465;50.862;6.220;2022-12-07T00:13:36;40.77;;;20.00;;
74904;SDS011;63465;50.862;6.220;2022-12-07T00:16:04;37.53;;;18.60;;
74904;SDS011;63465;50.862;6.220;2022-12-07T00:18:32;39.30;;;19.83;;
74904;SDS011;63465;50.862;6.220;2022-12-07T00:20:59;36.20;;;19.33;;
74904;SDS011;63465;50.862;6.220;2022-12-07T00:23:27;37.73;;;19.50;;
74904;SDS011;63465;50.862;6.220;2022-12-07T00:25:55;41.10;;;18.73;;
74904;SDS011;63465;50.862;6.220;2022-12-07T00:28:22;35.93;;;18.50;;
74904;SDS011;63465;50.862;6.220;2022-12-07T00:30:48;35.37;;;18.40;;
74904;SDS011;63465;50.862;6.220;2022-12-07T00:33:15;37.10;;;18.80;;
74904;SDS011;63465;50.862;6.220;2022-12-07T00:35:42;39.13;;;19.43;;
74904;SDS011;63465;50.862;6.220;2022-12-07T00:38:08;35.97;;;18.10;;
74904;SDS011;63465;50.862;6.220;2022-12-07T00:40:35;47.20;;;17.87;;
74904;SDS011;63465;50.862;6.220;2022-12-07T00:43:03;36.00;;;17.90;;
74904;SDS011;63465;50.862;6.220;2022-12-07T00:45:29;39.20;;;18.80;;
74904;SDS011;63465;50.862;6.220;2022-12-07T00:47:56;41.10;;;19.43;;
74904;SDS011;63465;50.862;6.220;2022-12-07T00:50:23;34.00;;;18.23;;
74904;SDS011;63465;50.862;6.220;2022-12-07T00:52:49;34.97;;;18.10;;
74904;SDS011;63465;50.862;6.220;2022-12-07T00:55:16;37.67;;;18.60;;
74904;SDS011;63465;50.862;6.220;2022-12-07T00:57:42;34.97;;;18.80;;
74904;SDS011;63465;50.862;6.220;2022-12-07T01:00:11;32.90;;;17.83;;
74904;SDS011;63465;50.862;6.220;2022-12-07T01:02:38;37.93;;;18.80;;
74904;SDS011;63465;50.862;6.220;2022-12-07T01:05:05;38.40;;;19.70;;
74904;SDS011;63465;50.862;6.220;2022-12-07T01:07:32;33.40;;;16.87;;
74904;SDS011;63465;50.862;6.220;2022-12-07T01:09:59;36.73;;;18.60;;
74904;SDS011;63465;50.862;6.220;2022-12-07T01:12:25;37.90;;;19.33;;
74904;SDS011;63465;50.862;6.220;2022-12-07T01:14:52;33.63;;;18.37;;
74904;SDS011;63465;50.862;6.220;2022-12-07T01:17:20;32.33;;;17.60;;
74904;SDS011;63465;50.862;6.220;2022-12-07T01:19:47;31.20;;;17.80;;
74904;SDS011;63465;50.862;6.220;2022-12-07T01:22:13;33.90;;;18.00;;
74904;SDS011;63465;50.862;6.220;2022-12-07T01:24:40;36.13;;;17.70;;
74904;SDS011;63465;50.862;6.220;2022-12-07T01:27:07;33.23;;;18.07;;
74904;SDS011;63465;50.862;6.220;2022-12-07T01:29:33;29.90;;;17.17;;
74904;SDS011;63465;50.862;6.220;2022-12-07T01:32:00;35.77;;;17.83;;
74904;SDS011;63465;50.862;6.220;2022-12-07T01:34:28;38.90;;;18.33;;
74904;SDS011;63465;50.862;6.220;2022-12-07T01:36:54;32.60;;;17.53;;
74904;SDS011;63465;50.862;6.220;2022-12-07T01:39:21;34.10;;;18.30;;
74904;SDS011;63465;50.862;6.220;2022-12-07T01:41:48;31.97;;;16.90;;
74904;SDS011;63465;50.862;6.220;2022-12-07T01:44:19;32.00;;;18.10;;
74904;SDS011;63465;50.862;6.220;2022-12-07T01:46:47;34.30;;;19.00;;
74904;SDS011;63465;50.862;6.220;2022-12-07T01:52:08;41.30;;;18.50;;
74904;SDS011;63465;50.862;6.220;2022-12-07T01:54:40;36.53;;;19.67;;
74904;SDS011;63465;50.862;6.220;2022-12-07T01:57:07;40.00;;;21.17;;
74904;SDS011;63465;50.862;6.220;2022-12-07T01:59:35;41.17;;;21.03;;
74904;SDS011;63465;50.862;6.220;2022-12-07T02:02:02;36.23;;;20.20;;
74904;SDS011;63465;50.862;6.220;2022-12-07T02:04:33;41.10;;;20.90;;
74904;SDS011;63465;50.862;6.220;2022-12-07T02:07:03;44.87;;;21.80;;
74904;SDS011;63465;50.862;6.220;2022-12-07T02:09:31;45.13;;;22.83;;
74904;SDS011;63465;50.862;6.220;2022-12-07T02:11:58;42.17;;;21.53;;
74904;SDS011;63465;50.862;6.220;2022-12-07T02:14:24;46.20;;;22.40;;
74904;SDS011;63465;50.862;6.220;2022-12-07T02:16:54;43.30;;;22.60;;
74904;SDS011;63465;50.862;6.220;2022-12-07T02:22:31;43.23;;;20.77;;
74904;SDS011;63465;50.862;6.220;2022-12-07T02:25:22;52.23;;;23.43;;
74904;SDS011;63465;50.862;6.220;2022-12-07T02:27:59;41.90;;;20.10;;
74904;SDS011;63465;50.862;6.220;2022-12-07T02:30:34;46.93;;;22.93;;
74904;SDS011;63465;50.862;6.220;2022-12-07T02:33:06;42.83;;;20.83;;
74904;SDS011;63465;50.862;6.220;2022-12-07T02:35:39;41.97;;;21.47;;
74904;SDS011;63465;50.862;6.220;2022-12-07T02:38:11;46.90;;;21.07;;
74904;SDS011;63465;50.862;6.220;2022-12-07T02:40:43;54.07;;;21.27;;
74904;SDS011;63465;50.862;6.220;2022-12-07T02:43:16;48.83;;;21.27;;
74904;SDS011;63465;50.862;6.220;2022-12-07T02:45:47;42.00;;;21.20;;
74904;SDS011;63465;50.862;6.220;2022-12-07T02:48:17;43.23;;;21.00;;
74904;SDS011;63465;50.862;6.220;2022-12-07T02:50:47;48.13;;;22.40;;
74904;SDS011;63465;50.862;6.220;2022-12-07T02:53:31;43.70;;;20.37;;
74904;SDS011;63465;50.862;6.220;2022-12-07T02:55:58;39.90;;;21.10;;
74904;SDS011;63465;50.862;6.220;2022-12-07T02:58:32;39.17;;;20.23;;
74904;SDS011;63465;50.862;6.220;2022-12-07T03:01:11;43.00;;;22.03;;
74904;SDS011;63465;50.862;6.220;2022-12-07T03:03:48;42.30;;;20.90;;
74904;SDS011;63465;50.862;6.220;2022-12-07T03:06:29;43.53;;;19.87;;
74904;SDS011;63465;50.862;6.220;2022-12-07T03:09:03;40.80;;;20.37;;
74904;SDS011;63465;50.862;6.220;2022-12-07T03:11:41;41.80;;;20.17;;
74904;SDS011;63465;50.862;6.220;2022-12-07T03:14:13;38.27;;;19.97;;
74904;SDS011;63465;50.862;6.220;2022-12-07T03:16:47;43.97;;;19.17;;
74904;SDS011;63465;50.862;6.220;2022-12-07T03:19:20;40.33;;;19.40;;
74904;SDS011;63465;50.862;6.220;2022-12-07T03:21:53;42.77;;;20.17;;
74904;SDS011;63465;50.862;6.220;2022-12-07T03:24:24;45.23;;;21.47;;
74904;SDS011;63465;50.862;6.220;2022-12-07T03:27:03;41.80;;;20.20;;
74904;SDS011;63465;50.862;6.220;2022-12-07T03:29:33;45.23;;;19.87;;
74904;SDS011;63465;50.862;6.220;2022-12-07T03:32:05;42.00;;;19.87;;
74904;SDS011;63465;50.862;6.220;2022-12-07T03:34:36;42.20;;;20.20;;
74904;SDS011;63465;50.862;6.220;2022-12-07T03:37:12;41.60;;;20.33;;
74904;SDS011;63465;50.862;6.220;2022-12-07T03:39:44;47.87;;;20.73;;
74904;SDS011;63465;50.862;6.220;2022-12-07T03:42:15;41.57;;;20.73;;
74904;SDS011;63465;50.862;6.220;2022-12-07T03:44:42;42.00;;;20.57;;
74904;SDS011;63465;50.862;6.220;2022-12-07T03:47:12;37.73;;;19.50;;
74904;SDS011;63465;50.862;6.220;2022-12-07T03:49:45;39.67;;;19.73;;
74904;SDS011;63465;50.862;6.220;2022-12-07T03:52:18;41.17;;;19.80;;
74904;SDS011;63465;50.862;6.220;2022-12-07T03:54:52;51.23;;;19.50;;
74904;SDS011;63465;50.862;6.220;2022-12-07T03:57:22;38.67;;;20.90;;
74904;SDS011;63465;50.862;6.220;2022-12-07T03:59:51;39.60;;;18.97;;
74904;SDS011;63465;50.862;6.220;2022-12-07T04:02:22;41.30;;;20.43;;
74904;SDS011;63465;50.862;6.220;2022-12-07T04:04:49;43.73;;;20.37;;
74904;SDS011;63465;50.862;6.220;2022-12-07T04:07:16;39.77;;;20.20;;
74904;SDS011;63465;50.862;6.220;2022-12-07T04:09:43;43.67;;;19.80;;
74904;SDS011;63465;50.862;6.220;2022-12-07T04:12:09;42.83;;;20.57;;
74904;SDS011;63465;50.862;6.220;2022-12-07T04:14:36;45.33;;;19.63;;
74904;SDS011;63465;50.862;6.220;2022-12-07T04:17:03;38.50;;;20.00;;
74904;SDS011;63465;50.862;6.220;2022-12-07T04:19:32;47.07;;;22.17;;
74904;SDS011;63465;50.862;6.220;2022-12-07T04:22:02;38.63;;;19.27;;
74904;SDS011;63465;50.862;6.220;2022-12-07T04:24:30;46.57;;;20.30;;
74904;SDS011;63465;50.862;6.220;2022-12-07T04:26:57;40.30;;;19.63;;
74904;SDS011;63465;50.862;6.220;2022-12-07T04:29:24;38.27;;;18.20;;
74904;SDS011;63465;50.862;6.220;2022-12-07T04:31:51;38.33;;;18.57;;
74904;SDS011;63465;50.862;6.220;2022-12-07T04:34:18;40.77;;;19.80;;
74904;SDS011;63465;50.862;6.220;2022-12-07T04:36:47;44.60;;;20.50;;
74904;SDS011;63465;50.862;6.220;2022-12-07T04:39:17;49.00;;;19.13;;
74904;SDS011;63465;50.862;6.220;2022-12-07T04:41:46;46.47;;;19.27;;
74904;SDS011;63465;50.862;6.220;2022-12-07T04:44:13;47.17;;;20.07;;
74904;SDS011;63465;50.862;6.220;2022-12-07T04:46:41;42.00;;;18.97;;
74904;SDS011;63465;50.862;6.220;2022-12-07T04:49:07;45.27;;;19.67;;
74904;SDS011;63465;50.862;6.220;2022-12-07T04:51:34;39.33;;;19.87;;
74904;SDS011;63465;50.862;6.220;2022-12-07T04:54:02;49.20;;;19.60;;
74904;SDS011;63465;50.862;6.220;2022-12-07T04:56:29;38.10;;;19.40;;
74904;SDS011;63465;50.862;6.220;2022-12-07T04:58:56;45.67;;;20.47;;
74904;SDS011;63465;50.862;6.220;2022-12-07T05:01:23;41.13;;;18.60;;
74904;SDS011;63465;50.862;6.220;2022-12-07T05:03:49;47.60;;;20.70;;
74904;SDS011;63465;50.862;6.220;2022-12-07T05:06:16;34.67;;;18.60;;
74904;SDS011;63465;50.862;6.220;2022-12-07T05:08:43;39.00;;;18.90;;
74904;SDS011;63465;50.862;6.220;2022-12-07T05:11:12;41.27;;;18.57;;
74904;SDS011;63465;50.862;6.220;2022-12-07T05:14:00;41.33;;;19.67;;
74904;SDS011;63465;50.862;6.220;2022-12-07T05:16:27;41.87;;;19.87;;
74904;SDS011;63465;50.862;6.220;2022-12-07T05:18:54;48.60;;;19.60;;
74904;SDS011;63465;50.862;6.220;2022-12-07T05:21:20;40.93;;;20.70;;
74904;SDS011;63465;50.862;6.220;2022-12-07T05:23:47;43.80;;;20.47;;
74904;SDS011;63465;50.862;6.220;2022-12-07T05:26:15;47.00;;;19.37;;
74904;SDS011;63465;50.862;6.220;2022-12-07T05:28:43;42.03;;;19.73;;
74904;SDS011;63465;50.862;6.220;2022-12-07T05:31:09;45.50;;;19.70;;
74904;SDS011;63465;50.862;6.220;2022-12-07T05:33:36;42.10;;;19.47;;
74904;SDS011;63465;50.862;6.220;2022-12-07T05:36:03;43.97;;;19.70;;
74904;SDS011;63465;50.862;6.220;2022-12-07T05:38:30;39.97;;;18.00;;
74904;SDS011;63465;50.862;6.220;2022-12-07T05:40:59;41.93;;;19.60;;
74904;SDS011;63465;50.862;6.220;2022-12-07T05:43:28;49.40;;;20.03;;
74904;SDS011;63465;50.862;6.220;2022-12-07T05:45:55;38.17;;;18.50;;
74904;SDS011;63465;50.862;6.220;2022-12-07T05:48:23;35.23;;;16.90;;
74904;SDS011;63465;50.862;6.220;2022-12-07T05:50:50;37.97;;;18.27;;
74904;SDS011;63465;50.862;6.220;2022-12-07T05:53:17;37.93;;;18.00;;
74904;SDS011;63465;50.862;6.220;2022-12-07T05:55:45;38.90;;;17.10;;
74904;SDS011;63465;50.862;6.220;2022-12-07T05:58:11;35.40;;;17.37;;
74904;SDS011;63465;50.862;6.220;2022-12-07T06:00:57;29.50;;;15.67;;
74904;SDS011;63465;50.862;6.220;2022-12-07T06:03:23;37.17;;;17.70;;
74904;SDS011;63465;50.862;6.220;2022-12-07T06:05:51;39.40;;;18.93;;
74904;SDS011;63465;50.862;6.220;2022-12-07T06:08:18;38.43;;;16.63;;
74904;SDS011;63465;50.862;6.220;2022-12-07T06:10:46;46.73;;;18.40;;
74904;SDS011;63465;50.862;6.220;2022-12-07T06:13:33;41.03;;;17.90;;
74904;SDS011;63465;50.862;6.220;2022-12-07T06:16:00;42.30;;;18.23;;
74904;SDS011;63465;50.862;6.220;2022-12-07T06:18:26;38.30;;;17.30;;
74904;SDS011;63465;50.862;6.220;2022-12-07T06:20:53;34.17;;;17.27;;
74904;SDS011;63465;50.862;6.220;2022-12-07T06:23:20;30.97;;;16.97;;
74904;SDS011;63465;50.862;6.220;2022-12-07T06:25:46;35.37;;;16.30;;
74904;SDS011;63465;50.862;6.220;2022-12-07T06:28:13;34.60;;;16.87;;
74904;SDS011;63465;50.862;6.220;2022-12-07T06:30:40;36.87;;;18.90;;
74904;SDS011;63465;50.862;6.220;2022-12-07T06:33:07;43.03;;;18.60;;
74904;SDS011;63465;50.862;6.220;2022-12-07T06:35:34;40.07;;;18.10;;
74904;SDS011;63465;50.862;6.220;2022-12-07T06:38:01;31.27;;;16.70;;
74904;SDS011;63465;50.862;6.220;2022-12-07T06:40:27;33.03;;;16.40;;
74904;SDS011;63465;50.862;6.220;2022-12-07T06:42:54;39.00;;;16.77;;
74904;SDS011;63465;50.862;6.220;2022-12-07T06:45:21;38.60;;;18.67;;
74904;SDS011;63465;50.862;6.220;2022-12-07T06:47:48;39.20;;;17.73;;
74904;SDS011;63465;50.862;6.220;2022-12-07T06:50:16;35.73;;;18.27;;
74904;SDS011;63465;50.862;6.220;2022-12-07T06:52:43;41.00;;;17.23;;
74904;SDS011;63465;50.862;6.220;2022-12-07T06:55:09;37.60;;;16.60;;
74904;SDS011;63465;50.862;6.220;2022-12-07T06:57:36;39.70;;;17.83;;
74904;SDS011;63465;50.862;6.220;2022-12-07T07:00:03;36.97;;;17.30;;
74904;SDS011;63465;50.862;6.220;2022-12-07T07:02:31;34.43;;;17.23;;
74904;SDS011;63465;50.862;6.220;2022-12-07T07:04:57;37.30;;;17.37;;
74904;SDS011;63465;50.862;6.220;2022-12-07T07:07:25;39.87;;;18.23;;
74904;SDS011;63465;50.862;6.220;2022-12-07T07:09:52;37.90;;;17.53;;
74904;SDS011;63465;50.862;6.220;2022-12-07T07:12:18;39.83;;;19.40;;
74904;SDS011;63465;50.862;6.220;2022-12-07T07:14:45;43.90;;;19.00;;
74904;SDS011;63465;50.862;6.220;2022-12-07T07:17:12;40.03;;;19.03;;
74904;SDS011;63465;50.862;6.220;2022-12-07T07:19:39;40.90;;;19.60;;
74904;SDS011;63465;50.862;6.220;2022-12-07T07:22:06;41.83;;;19.07;;
74904;SDS011;63465;50.862;6.220;2022-12-07T07:24:34;55.00;;;21.80;;
74904;SDS011;63465;50.862;6.220;2022-12-07T07:27:00;41.40;;;19.23;;
74904;SDS011;63465;50.862;6.220;2022-12-07T07:29:27;38.53;;;18.53;;
74904;SDS011;63465;50.862;6.220;2022-12-07T07:31:53;39.13;;;19.00;;
74904;SDS011;63465;50.862;6.220;2022-12-07T07:34:20;44.20;;;19.10;;
74904;SDS011;63465;50.862;6.220;2022-12-07T07:36:47;41.30;;;18.27;;
74904;SDS011;63465;50.862;6.220;2022-12-07T07:39:13;53.20;;;18.63;;
74904;SDS011;63465;50.862;6.220;2022-12-07T07:41:41;39.17;;;19.90;;
74904;SDS011;63465;50.862;6.220;2022-12-07T07:44:12;41.70;;;18.10;;
74904;SDS011;63465;50.862;6.220;2022-12-07T07:46:39;42.50;;;18.47;;
74904;SDS011;63465;50.862;6.220;2022-12-07T07:49:05;45.60;;;19.27;;
74904;SDS011;63465;50.862;6.220;2022-12-07T07:51:32;38.27;;;18.70;;
74904;SDS011;63465;50.862;6.220;2022-12-07T07:53:59;46.50;;;19.60;;
74904;SDS011;63465;50.862;6.220;2022-12-07T07:56:25;42.13;;;18.30;;
74904;SDS011;63465;50.862;6.220;2022-12-07T07:58:54;48.63;;;20.07;;
74904;SDS011;63465;50.862;6.220;2022-12-07T08:01:20;44.43;;;18.77;;
74904;SDS011;63465;50.862;6.220;2022-12-07T08:03:47;43.73;;;20.07;;
74904;SDS011;63465;50.862;6.220;2022-12-07T08:06:14;41.87;;;19.60;;
74904;SDS011;63465;50.862;6.220;2022-12-07T08:08:41;41.80;;;18.70;;
74904;SDS011;63465;50.862;6.220;2022-12-07T08:11:08;45.40;;;18.73;;
74904;SDS011;63465;50.862;6.220;2022-12-07T08:13:35;46.20;;;19.63;;
74904;SDS011;63465;50.862;6.220;2022-12-07T08:16:04;41.07;;;19.07;;
74904;SDS011;63465;50.862;6.220;2022-12-07T08:18:34;39.40;;;17.20;;
74904;SDS011;63465;50.862;6.220;2022-12-07T08:21:01;40.97;;;18.40;;
74904;SDS011;63465;50.862;6.220;2022-12-07T08:23:29;43.03;;;18.70;;
74904;SDS011;63465;50.862;6.220;2022-12-07T08:25:59;39.00;;;18.33;;
74904;SDS011;63465;50.862;6.220;2022-12-07T08:28:27;37.83;;;17.20;;
74904;SDS011;63465;50.862;6.220;2022-12-07T08:30:58;30.53;;;16.73;;
74904;SDS011;63465;50.862;6.220;2022-12-07T08:33:26;39.83;;;17.97;;
74904;SDS011;63465;50.862;6.220;2022-12-07T08:35:53;39.97;;;17.20;;
74904;SDS011;63465;50.862;6.220;2022-12-07T08:38:20;41.37;;;17.70;;
74904;SDS011;63465;50.862;6.220;2022-12-07T08:40:52;35.83;;;17.77;;
74904;SDS011;63465;50.862;6.220;2022-12-07T08:43:20;41.93;;;17.00;;
74904;SDS011;63465;50.862;6.220;2022-12-07T08:45:46;36.47;;;18.40;;
74904;SDS011;63465;50.862;6.220;2022-12-07T08:48:14;36.57;;;17.03;;
74904;SDS011;63465;50.862;6.220;2022-12-07T08:50:44;39.27;;;16.90;;
74904;SDS011;63465;50.862;6.220;2022-12-07T08:53:11;38.07;;;17.03;;
74904;SDS011;63465;50.862;6.220;2022-12-07T08:55:37;38.30;;;16.97;;
74904;SDS011;63465;50.862;6.220;2022-12-07T08:58:04;30.60;;;15.93;;
74904;SDS011;63465;50.862;6.220;2022-12-07T09:00:31;30.37;;;14.80;;
74904;SDS011;63465;50.862;6.220;2022-12-07T09:02:57;25.30;;;14.53;;
74904;SDS011;63465;50.862;6.220;2022-12-07T09:05:24;28.70;;;13.70;;
74904;SDS011;63465;50.862;6.220;2022-12-07T09:07:54;27.63;;;13.93;;
74904;SDS011;63465;50.862;6.220;2022-12-07T09:10:24;23.40;;;13.07;;
74904;SDS011;63465;50.862;6.220;2022-12-07T09:12:51;33.17;;;12.90;;
74904;SDS011;63465;50.862;6.220;2022-12-07T09:15:17;25.90;;;13.30;;
74904;SDS011;63465;50.862;6.220;2022-12-07T09:17:44;27.00;;;13.30;;
74904;SDS011;63465;50.862;6.220;2022-12-07T09:20:11;26.43;;;12.50;;
74904;SDS011;63465;50.862;6.220;2022-12-07T09:22:38;23.77;;;12.73;;
74904;SDS011;63465;50.862;6.220;2022-12-07T09:25:06;22.10;;;11.93;;
74904;SDS011;63465;50.862;6.220;2022-12-07T09:27:33;24.43;;;12.87;;
74904;SDS011;63465;50.862;6.220;2022-12-07T09:30:00;27.77;;;13.30;;
74904;SDS011;63465;50.862;6.220;2022-12-07T09:32:27;27.67;;;12.80;;
74904;SDS011;63465;50.862;6.220;2022-12-07T09:34:54;30.20;;;13.50;;
74904;SDS011;63465;50.862;6.220;2022-12-07T09:37:20;31.83;;;14.20;;
74904;SDS011;63465;50.862;6.220;2022-12-07T09:39:47;30.53;;;15.77;;
74904;SDS011;63465;50.862;6.220;2022-12-07T09:42:23;32.10;;;15.30;;
74904;SDS011;63465;50.862;6.220;2022-12-07T09:44:53;27.97;;;14.43;;
74904;SDS011;63465;50.862;6.220;2022-12-07T09:47:20;29.10;;;15.30;;
74904;SDS011;63465;50.862;6.220;2022-12-07T09:49:47;30.40;;;15.30;;
74904;SDS011;63465;50.862;6.220;2022-12-07T09:52:17;31.13;;;14.60;;
74904;SDS011;63465;50.862;6.220;2022-12-07T09:54:48;29.03;;;15.13;;
74904;SDS011;63465;50.862;6.220;2022-12-07T09:57:16;32.17;;;15.37;;
74904;SDS011;63465;50.862;6.220;2022-12-07T09:59:45;30.30;;;15.17;;
74904;SDS011;63465;50.862;6.220;2022-12-07T10:02:19;34.20;;;16.47;;
74904;SDS011;63465;50.862;6.220;2022-12-07T10:05:00;33.00;;;15.50;;
74904;SDS011;63465;50.862;6.220;2022-12-07T10:07:29;34.70;;;14.87;;
74904;SDS011;63465;50.862;6.220;2022-12-07T10:09:56;31.93;;;15.30;;
74904;SDS011;63465;50.862;6.220;2022-12-07T10:12:22;33.60;;;15.20;;
74904;SDS011;63465;50.862;6.220;2022-12-07T10:14:54;36.07;;;16.60;;
74904;SDS011;63465;50.862;6.220;2022-12-07T10:17:27;32.40;;;15.60;;
74904;SDS011;63465;50.862;6.220;2022-12-07T10:20:08;41.23;;;17.30;;
74904;SDS011;63465;50.862;6.220;2022-12-07T10:22:48;35.57;;;15.93;;
74904;SDS011;63465;50.862;6.220;2022-12-07T10:25:21;34.17;;;17.03;;
74904;SDS011;63465;50.862;6.220;2022-12-07T10:27:57;35.37;;;19.20;;
74904;SDS011;63465;50.862;6.220;2022-12-07T10:30:26;38.23;;;17.93;;
74904;SDS011;63465;50.862;6.220;2022-12-07T10:32:53;33.20;;;16.70;;
74904;SDS011;63465;50.862;6.220;2022-12-07T10:35:21;36.20;;;16.93;;
74904;SDS011;63465;50.862;6.220;2022-12-07T10:37:51;37.30;;;16.97;;
74904;SDS011;63465;50.862;6.220;2022-12-07T10:40:27;31.83;;;16.50;;
74904;SDS011;63465;50.862;6.220;2022-12-07T10:43:03;34.70;;;17.57;;
74904;SDS011;63465;50.862;6.220;2022-12-07T10:45:34;32.07;;;17.73;;
74904;SDS011;63465;50.862;6.220;2022-12-07T10:48:02;36.37;;;18.23;;
74904;SDS011;63465;50.862;6.220;2022-12-07T10:50:42;37.20;;;16.83;;
74904;SDS011;63465;50.862;6.220;2022-12-07T11:02:22;26.63;;;12.47;;
74904;SDS011;63465;50.862;6.220;2022-12-07T11:05:06;24.53;;;13.27;;
74904;SDS011;63465;50.862;6.220;2022-12-07T11:07:44;21.30;;;12.20;;
74904;SDS011;63465;50.862;6.220;2022-12-07T11:10:18;21.53;;;12.97;;
74904;SDS011;63465;50.862;6.220;2022-12-07T11:12:53;20.20;;;12.13;;
74904;SDS011;63465;50.862;6.220;2022-12-07T11:15:28;29.63;;;13.07;;
74904;SDS011;63465;50.862;6.220;2022-12-07T11:18:10;19.50;;;12.07;;
74904;SDS011;63465;50.862;6.220;2022-12-07T11:20:43;20.00;;;11.30;;
74904;SDS011;63465;50.862;6.220;2022-12-07T11:23:18;19.87;;;11.13;;
74904;SDS011;63465;50.862;6.220;2022-12-07T11:25:54;18.93;;;10.90;;
74904;SDS011;63465;50.862;6.220;2022-12-07T11:28:33;16.17;;;10.83;;
74904;SDS011;63465;50.862;6.220;2022-12-07T11:31:16;20.13;;;10.30;;
74904;SDS011;63465;50.862;6.220;2022-12-07T11:33:51;24.10;;;10.87;;
74904;SDS011;63465;50.862;6.220;2022-12-07T11:36:33;19.90;;;12.03;;
74904;SDS011;63465;50.862;6.220;2022-12-07T11:39:04;16.60;;;10.70;;
74904;SDS011;63465;50.862;6.220;2022-12-07T11:41:54;21.57;;;11.10;;
74904;SDS011;63465;50.862;6.220;2022-12-07T11:44:28;16.03;;;10.17;;
74904;SDS011;63465;50.862;6.220;2022-12-07T11:47:02;24.37;;;11.50;;
74904;SDS011;63465;50.862;6.220;2022-12-07T11:49:40;23.87;;;10.57;;
74904;SDS011;63465;50.862;6.220;2022-12-07T11:52:20;18.77;;;9.03;;
74904;SDS011;63465;50.862;6.220;2022-12-07T11:54:53;14.30;;;9.53;;
74904;SDS011;63465;50.862;6.220;2022-12-07T11:57:22;12.20;;;9.33;;
74904;SDS011;63465;50.862;6.220;2022-12-07T11:59:56;16.93;;;9.73;;
74904;SDS011;63465;50.862;6.220;2022-12-07T12:02:32;16.60;;;9.17;;
74904;SDS011;63465;50.862;6.220;2022-12-07T12:05:05;13.13;;;9.07;;
74904;SDS011;63465;50.862;6.220;2022-12-07T12:07:40;17.73;;;10.10;;
74904;SDS011;63465;50.862;6.220;2022-12-07T12:10:14;16.27;;;9.43;;
74904;SDS011;63465;50.862;6.220;2022-12-07T12:15:44;14.57;;;9.30;;
74904;SDS011;63465;50.862;6.220;2022-12-07T12:18:36;14.83;;;9.20;;
74904;SDS011;63465;50.862;6.220;2022-12-07T12:21:21;14.77;;;8.60;;
74904;SDS011;63465;50.862;6.220;2022-12-07T12:23:55;12.53;;;8.67;;
74904;SDS011;63465;50.862;6.220;2022-12-07T12:26:25;22.40;;;10.83;;
74904;SDS011;63465;50.862;6.220;2022-12-07T12:28:55;18.93;;;9.60;;
74904;SDS011;63465;50.862;6.220;2022-12-07T12:31:31;18.03;;;10.00;;
74904;SDS011;63465;50.862;6.220;2022-12-07T12:34:02;23.77;;;9.50;;
74904;SDS011;63465;50.862;6.220;2022-12-07T12:36:45;17.43;;;9.23;;
74904;SDS011;63465;50.862;6.220;2022-12-07T12:39:14;23.53;;;9.30;;
74904;SDS011;63465;50.862;6.220;2022-12-07T12:50:58;12.13;;;8.00;;
74904;SDS011;63465;50.862;6.220;2022-12-07T12:54:04;11.50;;;7.37;;
74904;SDS011;63465;50.862;6.220;2022-12-07T12:56:38;11.97;;;7.53;;
74904;SDS011;63465;50.862;6.220;2022-12-07T12:59:22;12.27;;;7.80;;
74904;SDS011;63465;50.862;6.220;2022-12-07T13:01:55;12.20;;;7.70;;
74904;SDS011;63465;50.862;6.220;2022-12-07T13:04:40;14.80;;;7.87;;
74904;SDS011;63465;50.862;6.220;2022-12-07T13:13:33;16.23;;;8.80;;
74904;SDS011;63465;50.862;6.220;2022-12-07T13:22:27;15.33;;;7.47;;
74904;SDS011;63465;50.862;6.220;2022-12-07T13:25:05;11.23;;;6.77;;
74904;SDS011;63465;50.862;6.220;2022-12-07T13:27:39;11.20;;;7.73;;
74904;SDS011;63465;50.862;6.220;2022-12-07T13:30:09;14.33;;;7.30;;
74904;SDS011;63465;50.862;6.220;2022-12-07T13:32:42;13.43;;;8.50;;
74904;SDS011;63465;50.862;6.220;2022-12-07T13:35:31;11.83;;;7.63;;
74904;SDS011;63465;50.862;6.220;2022-12-07T13:38:01;22.70;;;8.20;;
74904;SDS011;63465;50.862;6.220;2022-12-07T13:40:30;14.13;;;8.77;;
74904;SDS011;63465;50.862;6.220;2022-12-07T13:42:58;12.37;;;8.03;;
74904;SDS011;63465;50.862;6.220;2022-12-07T13:45:26;19.30;;;9.33;;
74904;SDS011;63465;50.862;6.220;2022-12-07T13:48:10;17.50;;;8.30;;
74904;SDS011;63465;50.862;6.220;2022-12-07T13:50:42;15.00;;;9.30;;
74904;SDS011;63465;50.862;6.220;2022-12-07T13:53:11;14.47;;;9.10;;
74904;SDS011;63465;50.862;6.220;2022-12-07T13:55:49;13.23;;;9.27;;
74904;SDS011;63465;50.862;6.220;2022-12-07T13:58:17;17.47;;;9.50;;
74904;SDS011;63465;50.862;6.220;2022-12-07T14:00:44;18.47;;;8.83;;
74904;SDS011;63465;50.862;6.220;2022-12-07T14:03:30;16.60;;;9.53;;
74904;SDS011;63465;50.862;6.220;2022-12-07T14:06:06;17.77;;;8.23;;
74904;SDS011;63465;50.862;6.220;2022-12-07T14:08:42;9.60;;;7.50;;
74904;SDS011;63465;50.862;6.220;2022-12-07T14:11:12;20.43;;;8.30;;
74904;SDS011;63465;50.862;6.220;2022-12-07T14:13:45;21.37;;;9.57;;
74904;SDS011;63465;50.862;6.220;2022-12-07T14:16:23;14.00;;;8.53;;
74904;SDS011;63465;50.862;6.220;2022-12-07T14:18:53;18.10;;;9.70;;
74904;SDS011;63465;50.862;6.220;2022-12-07T14:21:21;14.73;;;9.30;;
74904;SDS011;63465;50.862;6.220;2022-12-07T14:24:02;14.80;;;9.27;;
74904;SDS011;63465;50.862;6.220;2022-12-07T14:26:42;11.83;;;8.80;;
74904;SDS011;63465;50.862;6.220;2022-12-07T14:29:21;15.33;;;9.10;;
74904;SDS011;63465;50.862;6.220;2022-12-07T14:31:49;18.00;;;9.73;;
74904;SDS011;63465;50.862;6.220;2022-12-07T14:34:15;21.40;;;9.43;;
74904;SDS011;63465;50.862;6.220;2022-12-07T14:36:42;12.80;;;9.23;;
74904;SDS011;63465;50.862;6.220;2022-12-07T14:39:09;16.43;;;9.80;;
74904;SDS011;63465;50.862;6.220;2022-12-07T14:41:35;14.37;;;9.70;;
74904;SDS011;63465;50.862;6.220;2022-12-07T14:44:17;15.73;;;10.03;;
74904;SDS011;63465;50.862;6.220;2022-12-07T14:46:47;14.07;;;9.30;;
74904;SDS011;63465;50.862;6.220;2022-12-07T14:49:14;14.13;;;9.43;;
74904;SDS011;63465;50.862;6.220;2022-12-07T14:51:41;20.17;;;11.30;;
74904;SDS011;63465;50.862;6.220;2022-12-07T14:54:12;24.03;;;10.30;;
74904;SDS011;63465;50.862;6.220;2022-12-07T14:56:41;21.47;;;10.87;;
74904;SDS011;63465;50.862;6.220;2022-12-07T14:59:09;17.93;;;11.03;;
74904;SDS011;63465;50.862;6.220;2022-12-07T15:01:36;20.63;;;9.87;;
74904;SDS011;63465;50.862;6.220;2022-12-07T15:04:04;15.67;;;10.00;;
74904;SDS011;63465;50.862;6.220;2022-12-07T15:06:31;17.47;;;10.93;;
74904;SDS011;63465;50.862;6.220;2022-12-07T15:08:58;18.00;;;10.90;;
74904;SDS011;63465;50.862;6.220;2022-12-07T15:11:24;17.90;;;10.80;;
74904;SDS011;63465;50.862;6.220;2022-12-07T15:13:51;20.00;;;10.67;;
74904;SDS011;63465;50.862;6.220;2022-12-07T15:16:38;50.10;;;26.57;;
74904;SDS011;63465;50.862;6.220;2022-12-07T15:19:09;20.73;;;11.40;;
74904;SDS011;63465;50.862;6.220;2022-12-07T15:21:39;20.07;;;11.13;;